Bei Facebook empfehlenBei Twitter postenGoogle plusPinterest

Das Wetter im Erzgebirge am 20.06.2017

Wetter und Klima am 20.06.2017 Holzhau im Erzgebirge (630m ü.NN)
Letzte gemessene Temperatur und Uhrzeit der Messung23:45:00 Uhr15.50 °C
Temperatur (Maximum / Höchstwert) und Uhrzeit der Messung15:00:00 Uhr31.00 °C
Temperatur (Minimum / Tiefstwert) und Uhrzeit der Messung05:15:0011.40 °C
Errechneter Absolutwert der Temperaturschwankungen zwischen Tmin und Tmax des Tages19.60 K
Errechnete Tagesmitteltemperatur22.16875 °C
Gesamt - Niederschlag des Tages (in flüssiger Form)0.00 Liter / m²
Luftdruck (Maximum / Höchstwert) und Zeitpunkt der Messung00:00:00 Uhr1016.90 hPa
Luftdruck (Minimum / Tiefstwert) und Zeitpunkt der Messung18:45:00 Uhr1013.60 hPa
Errechneter Absolutwert der Luftdruckschwankungen des Tages3.30 hPa
Höchste gemessene Windgeschwindigkeit und Uhrzeit der Messung12:45:00 Uhr40.32 km/h
Errechnete Windhäufigkeit in Relation zu den Messwerten des Tages7.29167 %
Niedrigste Windkühle (Windchill) und Zeitpunkt der Messung05:15:00 Uhr11.40 °C
Taupunkt (Maximum / Höchstwert) und Uhrzeit der Messung08:15:00 Uhr15.90 °C
Taupunkt (Minimum / Tiefstwert) und Uhrzeit der Messung05:15:009.10 °C
Anzahl der automatisch eingelesenen Messwerte 96

Detaillierte Wetter- und Klima- Messwerte für den 20.06.2017 in Holzhau im Erzgebirge (630m ü.NN)
ZeitTemperaturLuftdruckRel. LuftfeuchteWindWindrichtungWindchillTaupunktNiederschlag l/m²
23:45:0015.50 °C1014.80 hPa77.00 %11.50 °C 
23:30:0015.80 °C1014.80 hPa76.00 %11.60 °C 
23:15:0016.20 °C1014.70 hPa75.00 %11.80 °C 
23:00:0016.70 °C1014.80 hPa74.00 %12.00 °C 
22:45:0017.20 °C1014.80 hPa72.00 %12.10 °C 
22:30:0017.80 °C1014.80 hPa71.00 %12.50 °C 
22:15:0018.20 °C1015.00 hPa70.00 %12.60 °C 
22:00:0018.60 °C1014.80 hPa69.00 %12.80 °C 
21:45:0018.90 °C1014.50 hPa67.00 %12.60 °C 
21:30:0019.30 °C1014.60 hPa65.00 %12.60 °C 
21:15:0020.10 °C1014.10 hPa62.00 %12.60 °C 
21:00:0020.90 °C1014.00 hPa59.00 %12.60 °C 
20:45:0021.90 °C1014.00 hPa56.00 %12.70 °C 
20:30:0022.80 °C1013.90 hPa53.00 %12.70 °C 
20:15:0023.60 °C1014.00 hPa51.00 %12.90 °C 
20:00:0024.50 °C1013.80 hPa48.00 %15.48 km/hSSW24.50 °C12.80 °C 
19:45:0025.40 °C1013.80 hPa47.00 %13.30 °C 
19:30:0025.90 °C1013.70 hPa46.00 %13.40 °C 
19:15:0026.30 °C1013.80 hPa44.00 %13.10 °C 
19:00:0026.90 °C1013.70 hPa45.00 %14.00 °C 
18:45:0027.30 °C1013.60 hPa45.00 %14.30 °C 
18:30:0027.60 °C1013.60 hPa44.00 %14.30 °C 
18:15:0027.60 °C1013.60 hPa44.00 %7.92 km/hW27.60 °C14.30 °C 
18:00:0027.40 °C1013.70 hPa44.00 %14.10 °C 
17:45:0028.00 °C1013.80 hPa42.00 %13.90 °C 
17:30:0028.40 °C1013.70 hPa43.00 %14.60 °C 
17:15:0029.10 °C1013.90 hPa40.00 %14.10 °C 
17:00:0029.10 °C1014.00 hPa42.00 %14.90 °C 
16:45:0029.40 °C1014.00 hPa39.00 %14.00 °C 
16:30:0030.20 °C1013.90 hPa39.00 %14.70 °C 
16:15:0030.40 °C1013.90 hPa38.00 %14.50 °C 
16:00:0029.90 °C1014.00 hPa39.00 %14.40 °C 
15:45:0029.70 °C1013.90 hPa39.00 %14.30 °C 
15:30:0029.60 °C1014.20 hPa40.00 %14.60 °C 
15:15:0030.60 °C1014.20 hPa39.00 %3.96 km/hWSW30.60 °C15.10 °C 
15:00:0031.00 °C1014.40 hPa38.00 %15.00 °C 
14:45:0030.80 °C1014.30 hPa40.00 %15.60 °C 
14:30:0030.70 °C1014.30 hPa39.00 %15.20 °C 
14:15:0030.70 °C1014.30 hPa38.00 %14.80 °C 
14:00:0030.90 °C1014.40 hPa39.00 %15.30 °C 
13:45:0030.20 °C1014.40 hPa39.00 %14.70 °C 
13:30:0030.40 °C1014.70 hPa38.00 %14.50 °C 
13:15:0030.20 °C1014.70 hPa38.00 %14.30 °C 
13:00:0030.30 °C1014.70 hPa38.00 %14.40 °C 
12:45:0030.20 °C1014.90 hPa38.00 %40.32 km/hSSW32.80 °C14.30 °C 
12:30:0030.40 °C1014.80 hPa37.00 %14.10 °C 
12:15:0030.10 °C1014.90 hPa37.00 %13.80 °C 
12:00:0029.90 °C1014.90 hPa38.00 %14.00 °C 
11:45:0029.60 °C1014.70 hPa43.00 %15.70 °C 
11:30:0029.10 °C1014.90 hPa43.00 %15.20 °C 
11:15:0028.90 °C1014.70 hPa44.00 %15.40 °C 
11:00:0029.10 °C1014.70 hPa44.00 %24.48 km/hSW31.40 °C15.60 °C 
10:45:0028.60 °C1014.70 hPa45.00 %15.50 °C 
10:30:0028.50 °C1014.70 hPa45.00 %15.40 °C 
10:15:0027.90 °C1014.90 hPa47.00 %15.50 °C 
10:00:0027.40 °C1015.10 hPa49.00 %15.70 °C 
09:45:0026.80 °C1015.10 hPa50.00 %15.50 °C 
09:30:0026.80 °C1015.20 hPa50.00 %15.50 °C 
09:15:0026.50 °C1015.00 hPa51.00 %15.50 °C 
09:00:0026.10 °C1015.00 hPa52.00 %15.50 °C 
08:45:0025.50 °C1015.00 hPa54.00 %15.50 °C 
08:30:0024.60 °C1014.90 hPa57.00 %15.50 °C 
08:15:0023.90 °C1014.90 hPa61.00 %15.90 °C 
08:00:0023.60 °C1014.90 hPa62.00 %10.44 km/hOSO23.60 °C15.90 °C 
07:45:0022.80 °C1015.00 hPa64.00 %15.60 °C 
07:30:0020.90 °C1014.80 hPa69.00 %15.00 °C 
07:15:0018.20 °C1014.90 hPa76.00 %13.90 °C 
07:00:0014.60 °C1014.90 hPa84.00 %11.90 °C 
06:45:0013.60 °C1015.00 hPa84.00 %11.00 °C 
06:30:0013.10 °C1015.00 hPa85.00 %10.60 °C 
06:15:0012.80 °C1015.00 hPa85.00 %10.30 °C 
06:00:0012.40 °C1015.00 hPa86.00 %10.10 °C 
05:45:0012.10 °C1015.00 hPa86.00 %9.80 °C 
05:30:0011.80 °C1014.90 hPa86.00 %9.50 °C 
05:15:0011.40 °C1015.00 hPa86.00 %9.10 °C 
05:00:0011.60 °C1015.10 hPa86.00 %9.30 °C 
04:45:0011.50 °C1015.10 hPa85.00 %9.10 °C 
04:30:0011.80 °C1015.00 hPa84.00 %9.20 °C 
04:15:0011.90 °C1015.20 hPa83.00 %9.10 °C 
04:00:0012.20 °C1015.20 hPa82.00 %9.20 °C 
03:45:0012.50 °C1015.30 hPa81.00 %9.30 °C 
03:30:0013.20 °C1015.50 hPa79.00 %9.60 °C 
03:15:0013.70 °C1015.60 hPa80.00 %10.30 °C 
03:00:0013.70 °C1015.80 hPa79.00 %10.10 °C 
02:45:0013.90 °C1015.90 hPa78.00 %10.10 °C 
02:30:0014.40 °C1015.90 hPa77.00 %10.40 °C 
02:15:0014.60 °C1016.00 hPa77.00 %10.60 °C 
02:00:0014.70 °C1016.10 hPa76.00 %10.50 °C 
01:45:0014.90 °C1016.20 hPa76.00 %10.70 °C 
01:30:0014.90 °C1016.20 hPa75.00 %10.50 °C 
01:15:0014.90 °C1016.40 hPa75.00 %10.50 °C 
01:00:0015.10 °C1016.50 hPa75.00 %6.48 km/hOSO15.10 °C10.70 °C 
00:45:0014.80 °C1016.60 hPa75.00 %10.40 °C 
00:30:0014.90 °C1016.70 hPa74.00 %10.30 °C 
00:15:0014.90 °C1016.80 hPa74.00 %10.30 °C 
00:00:0014.90 °C1016.90 hPa73.00 %10.10 °C 

Permanenter Link zu dieser Seite: Wetter im Erzgebirge am 20.06.2017
Performance-Info: Die Erstellung der Seite / Statistik(en) / Tabelle(n) erforderte 5 Datenbankserver-Abfrage(n) und dauerte 99 Millisekunden. (Dieser Messwert ist von der Gesamt-Auslastung des Servers abhängig.)
Erzgebirge - Wetter | Erzgebirge - Wetter (Mobilgeräte) | Komplette Klimadatenbank